Wetterdaten: Woche 07.09.15 - 13.09.15 (KW37)
Datum Zeit Temp. A. Feuchte A. Luftdruck Regen Wind Richtung Sonnenschein ET UV Solar Taupunkt Windchill Windben Empfang
07.09.2015 00:00 10,6 C 72 % 1024,2 hPa 0,0 l/m 1,6 km/h (1 Bft) O 0,00 h 0,000 mm 0,0 UV-I 0 W/m 5,7 C 10,6 C 4,7 km/h (1 Bft) 0,00 %
07.09.2015 01:00 10,5 C 72 % 1024,2 hPa 0,0 l/m 3,4 km/h (1 Bft) W-SW 0,00 h 0,000 mm 0,0 UV-I 0 W/m 5,7 C 10,3 C 5,6 km/h (1 Bft) 0,00 %
07.09.2015 02:00 10,1 C 73 % 1023,9 hPa 0,0 l/m 2,0 km/h (1 Bft) NW 0,00 h 0,000 mm 0,0 UV-I 0 W/m 5,5 C 10,1 C 5,0 km/h (1 Bft) 0,00 %
07.09.2015 03:00 9,3 C 74 % 1023,7 hPa 0,0 l/m 2,7 km/h (1 Bft) W-NW 0,00 h 0,000 mm 0,0 UV-I 0 W/m 5,0 C 9,3 C 5,6 km/h (1 Bft) 0,00 %
07.09.2015 04:00 8,9 C 75 % 1023,5 hPa 0,0 l/m 1,1 km/h (1 Bft) W 0,00 h 0,000 mm 0,0 UV-I 0 W/m 4,7 C 8,9 C 3,7 km/h (1 Bft) 0,00 %
07.09.2015 05:00 8,9 C 74 % 1023,5 hPa 0,0 l/m 3,3 km/h (1 Bft) W-SW 0,00 h 0,000 mm 0,0 UV-I 0 W/m 4,5 C 8,8 C 6,3 km/h (2 Bft) 0,00 %
07.09.2015 06:00 8,3 C 77 % 1023,5 hPa 0,0 l/m 2,3 km/h (1 Bft) W-SW 0,00 h 0,000 mm 0,0 UV-I 10 W/m 4,6 C 7,9 C 4,6 km/h (1 Bft) 0,00 %
07.09.2015 07:00 8,4 C 78 % 1023,6 hPa 0,0 l/m 1,2 km/h (1 Bft) N-NW 0,33 h 0,000 mm 1,0 UV-I 85 W/m 4,7 C 8,4 C 3,0 km/h (1 Bft) 0,00 %
07.09.2015 08:00 11,3 C 67 % 1022,8 hPa 0,0 l/m 3,7 km/h (1 Bft) N-NO 0,75 h 0,000 mm 1,0 UV-I 187 W/m 5,3 C 10,9 C 6,3 km/h (2 Bft) 0,00 %
07.09.2015 09:00 12,5 C 64 % 1022,6 hPa 0,0 l/m 4,5 km/h (1 Bft) W-SW 0,17 h 0,000 mm 1,0 UV-I 236 W/m 5,8 C 12,0 C 7,6 km/h (2 Bft) 0,00 %
07.09.2015 10:00 12,6 C 63 % 1023,0 hPa 0,0 l/m 4,9 km/h (1 Bft) W-SW 0,08 h 0,000 mm 1,1 UV-I 254 W/m 5,8 C 12,0 C 8,3 km/h (2 Bft) 0,00 %
07.09.2015 11:00 13,1 C 62 % 1023,0 hPa 0,0 l/m 3,6 km/h (1 Bft) W-SW 0,00 h 0,000 mm 1,0 UV-I 237 W/m 6,0 C 13,0 C 6,9 km/h (2 Bft) 0,00 %
07.09.2015 12:00 13,0 C 62 % 1022,9 hPa 0,0 l/m 5,1 km/h (1 Bft) W-SW 0,00 h 0,000 mm 1,0 UV-I 229 W/m 5,8 C 12,2 C 7,6 km/h (2 Bft) 0,00 %
07.09.2015 13:00 12,7 C 66 % 1022,8 hPa 0,0 l/m 4,0 km/h (1 Bft) W-SW 0,00 h 0,000 mm 1,5 UV-I 257 W/m 6,5 C 12,4 C 7,0 km/h (2 Bft) 0,00 %
07.09.2015 14:00 13,1 C 57 % 1022,6 hPa 0,0 l/m 5,5 km/h (1 Bft) W-SW 0,00 h 0,000 mm 1,0 UV-I 167 W/m 4,9 C 12,6 C 9,6 km/h (2 Bft) 0,00 %
07.09.2015 15:00 12,8 C 61 % 1022,7 hPa 0,0 l/m 3,2 km/h (1 Bft) W-SW 0,00 h 0,000 mm 1,0 UV-I 103 W/m 5,4 C 12,4 C 6,0 km/h (2 Bft) 0,00 %
07.09.2015 16:00 12,9 C 64 % 1022,6 hPa 0,0 l/m 2,2 km/h (1 Bft) W-SW 0,00 h 0,000 mm 1,0 UV-I 117 W/m 6,2 C 12,8 C 5,3 km/h (1 Bft) 0,00 %
07.09.2015 17:00 12,5 C 66 % 1023,3 hPa 0,0 l/m 3,3 km/h (1 Bft) W-SW 0,00 h 0,000 mm 0,0 UV-I 44 W/m 6,4 C 12,5 C 5,6 km/h (1 Bft) 0,00 %
07.09.2015 18:00 12,1 C 67 % 1023,7 hPa 0,0 l/m 1,4 km/h (1 Bft) W 0,00 h 0,000 mm 0,0 UV-I 11 W/m 6,3 C 12,1 C 3,3 km/h (1 Bft) 0,00 %
07.09.2015 19:00 11,9 C 72 % 1023,9 hPa 0,0 l/m 0,1 km/h (0 Bft) N 0,00 h 0,000 mm 0,0 UV-I 0 W/m 7,0 C 11,9 C 1,0 km/h (0 Bft) 0,00 %
07.09.2015 20:00 11,8 C 72 % 1024,4 hPa 0,0 l/m 0,8 km/h (0 Bft) N-NW 0,00 h 0,000 mm 0,0 UV-I 0 W/m 7,0 C 11,8 C 2,7 km/h (1 Bft) 0,00 %
07.09.2015 21:00 11,5 C 75 % 1024,8 hPa 0,0 l/m 1,0 km/h (0 Bft) NO 0,00 h 0,000 mm 0,0 UV-I 0 W/m 7,3 C 11,5 C 3,0 km/h (1 Bft) 0,00 %
07.09.2015 22:00 11,3 C 79 % 1025,0 hPa 0,0 l/m 1,5 km/h (1 Bft) W 0,00 h 0,000 mm 0,0 UV-I 0 W/m 7,7 C 11,3 C 4,3 km/h (1 Bft) 0,00 %
07.09.2015 23:00 10,4 C 89 % 1025,3 hPa 1,8 l/m 0,8 km/h (0 Bft) S-SW 0,00 h 0,000 mm 0,0 UV-I 0 W/m 8,6 C 10,4 C 2,3 km/h (1 Bft) 0,00 %
08.09.2015 00:00 9,9 C 96 % 1025,4 hPa 2,4 l/m 0,1 km/h (0 Bft) N 0,00 h 0,000 mm 0,0 UV-I 0 W/m 9,3 C 9,9 C 0,7 km/h (0 Bft) 0,00 %
08.09.2015 01:00 9,7 C 99 % 1025,3 hPa 0,0 l/m 0,4 km/h (0 Bft) W-SW 0,00 h 0,000 mm 0,0 UV-I 0 W/m 9,6 C 9,7 C 1,0 km/h (0 Bft) 0,00 %
08.09.2015 02:00 9,7 C 99 % 1025,1 hPa 0,0 l/m 0,1 km/h (0 Bft) N 0,00 h 0,000 mm 0,0 UV-I 0 W/m 9,6 C 9,7 C 0,7 km/h (0 Bft) 0,00 %
08.09.2015 03:00 9,7 C 99 % 1025,2 hPa 0,0 l/m 0,5 km/h (0 Bft) W-SW 0,00 h 0,000 mm 0,0 UV-I 0 W/m 9,5 C 9,7 C 1,7 km/h (1 Bft) 0,00 %
08.09.2015 04:00 9,6 C 99 % 1025,2 hPa 0,0 l/m 0,2 km/h (0 Bft) W-SW 0,00 h 0,000 mm 0,0 UV-I 0 W/m 9,4 C 9,6 C 0,7 km/h (0 Bft) 0,00 %
08.09.2015 05:00 9,5 C 99 % 1025,0 hPa 0,0 l/m 0,0 km/h (0 Bft) N 0,00 h 0,000 mm 0,0 UV-I 0 W/m 9,4 C 9,5 C 0,0 km/h (0 Bft) 0,00 %
08.09.2015 06:00 9,5 C 99 % 1025,0 hPa 0,0 l/m 0,1 km/h (0 Bft) N 0,00 h 0,000 mm 0,0 UV-I 10 W/m 9,4 C 9,5 C 0,7 km/h (0 Bft) 0,00 %
08.09.2015 07:00 9,8 C 99 % 1024,5 hPa 0,0 l/m 0,0 km/h (0 Bft) N 0,00 h 0,000 mm 0,0 UV-I 58 W/m 9,6 C 9,8 C 0,0 km/h (0 Bft) 0,00 %
08.09.2015 08:00 10,9 C 97 % 1024,0 hPa 0,0 l/m 0,0 km/h (0 Bft) N 0,08 h 0,000 mm 1,0 UV-I 125 W/m 10,4 C 10,9 C 0,0 km/h (0 Bft) 0,00 %
08.09.2015 09:00 12,3 C 86 % 1023,8 hPa 0,0 l/m 0,3 km/h (0 Bft) N-NW 0,17 h 0,000 mm 1,0 UV-I 221 W/m 10,0 C 12,3 C 0,7 km/h (0 Bft) 0,00 %
08.09.2015 10:00 14,7 C 70 % 1023,8 hPa 0,0 l/m 0,8 km/h (0 Bft) W-SW 0,83 h 0,000 mm 1,9 UV-I 407 W/m 9,3 C 14,7 C 2,0 km/h (1 Bft) 0,00 %
08.09.2015 11:00 16,6 C 59 % 1023,6 hPa 0,0 l/m 1,5 km/h (1 Bft) W-SW 0,83 h 0,000 mm 2,5 UV-I 585 W/m 8,5 C 16,5 C 2,7 km/h (1 Bft) 0,00 %
08.09.2015 12:00 17,0 C 49 % 1023,2 hPa 0,0 l/m 1,7 km/h (1 Bft) W-SW 0,92 h 0,000 mm 2,8 UV-I 641 W/m 6,2 C 17,0 C 3,3 km/h (1 Bft) 0,00 %
08.09.2015 13:00 18,0 C 43 % 1022,9 hPa 0,0 l/m 2,0 km/h (1 Bft) N-NO 0,92 h 0,000 mm 2,7 UV-I 757 W/m 5,2 C 18,0 C 4,0 km/h (1 Bft) 0,00 %
08.09.2015 14:00 18,0 C 42 % 1022,4 hPa 0,0 l/m 2,5 km/h (1 Bft) W-SW 1,00 h 0,000 mm 1,8 UV-I 735 W/m 4,8 C 17,8 C 4,7 km/h (1 Bft) 0,00 %
08.09.2015 15:00 17,6 C 44 % 1021,9 hPa 0,0 l/m 0,9 km/h (0 Bft) W-SW 1,00 h 0,000 mm 1,0 UV-I 699 W/m 5,2 C 17,6 C 3,0 km/h (1 Bft) 0,00 %
08.09.2015 16:00 17,3 C 45 % 1021,7 hPa 0,0 l/m 0,8 km/h (0 Bft) N-NW 1,00 h 0,000 mm 1,0 UV-I 684 W/m 5,1 C 17,3 C 2,0 km/h (1 Bft) 0,00 %
08.09.2015 17:00 17,9 C 41 % 1021,3 hPa 0,0 l/m 0,6 km/h (0 Bft) N-NW 1,00 h 0,000 mm 1,0 UV-I 587 W/m 4,4 C 17,9 C 1,7 km/h (1 Bft) 0,00 %
08.09.2015 18:00 17,3 C 41 % 1021,3 hPa 0,0 l/m 0,0 km/h (0 Bft) N 1,00 h 0,000 mm 1,0 UV-I 316 W/m 3,9 C 17,3 C 0,0 km/h (0 Bft) 0,00 %
08.09.2015 19:00 13,8 C 56 % 1021,6 hPa 0,0 l/m 0,0 km/h (0 Bft) N 0,33 h 0,000 mm 0,0 UV-I 22 W/m 5,0 C 13,8 C 0,0 km/h (0 Bft) 0,00 %
08.09.2015 20:00 10,8 C 66 % 1022,0 hPa 0,0 l/m 0,0 km/h (0 Bft) N 0,00 h 0,000 mm 0,0 UV-I 0 W/m 4,8 C 10,8 C 0,0 km/h (0 Bft) 0,00 %
08.09.2015 21:00 9,7 C 71 % 1022,3 hPa 0,0 l/m 0,0 km/h (0 Bft) N 0,00 h 0,000 mm 0,0 UV-I 0 W/m 4,7 C 9,7 C 0,0 km/h (0 Bft) 0,00 %
08.09.2015 22:00 8,8 C 81 % 1022,6 hPa 0,0 l/m 0,0 km/h (0 Bft) N 0,00 h 0,000 mm 0,0 UV-I 0 W/m 5,7 C 8,8 C 0,0 km/h (0 Bft) 0,00 %
08.09.2015 23:00 7,9 C 91 % 1022,7 hPa 0,0 l/m 0,0 km/h (0 Bft) N 0,00 h 0,000 mm 0,0 UV-I 0 W/m 6,5 C 7,9 C 0,0 km/h (0 Bft) 0,00 %
09.09.2015 00:00 7,3 C 94 % 1022,5 hPa 0,0 l/m 0,0 km/h (0 Bft) N 0,00 h 0,000 mm 0,0 UV-I 0 W/m 6,5 C 7,3 C 0,0 km/h (0 Bft) 0,00 %
09.09.2015 01:00 6,4 C 97 % 1022,2 hPa 0,0 l/m 0,0 km/h (0 Bft) N 0,00 h 0,000 mm 0,0 UV-I 0 W/m 5,9 C 6,4 C 0,0 km/h (0 Bft) 0,00 %
09.09.2015 02:00 5,8 C 98 % 1021,9 hPa 0,0 l/m 0,0 km/h (0 Bft) N 0,00 h 0,000 mm 0,0 UV-I 0 W/m 5,5 C 5,8 C 0,0 km/h (0 Bft) 0,00 %
09.09.2015 03:00 5,3 C 98 % 1021,5 hPa 0,0 l/m 0,0 km/h (0 Bft) N 0,00 h 0,000 mm 0,0 UV-I 0 W/m 5,1 C 5,3 C 0,0 km/h (0 Bft) 0,00 %
09.09.2015 04:00 5,5 C 98 % 1021,3 hPa 0,0 l/m 0,0 km/h (0 Bft) N 0,00 h 0,000 mm 0,0 UV-I 0 W/m 5,2 C 5,5 C 0,0 km/h (0 Bft) 0,00 %
09.09.2015 05:00 6,6 C 97 % 1021,1 hPa 0,0 l/m 0,0 km/h (0 Bft) N 0,00 h 0,000 mm 0,0 UV-I 0 W/m 6,2 C 6,6 C 0,0 km/h (0 Bft) 0,00 %
09.09.2015 06:00 7,1 C 99 % 1021,1 hPa 0,0 l/m 0,0 km/h (0 Bft) N 0,00 h 0,000 mm 0,0 UV-I 0 W/m 7,0 C 7,1 C 0,0 km/h (0 Bft) 0,00 %
09.09.2015 07:00 7,7 C 99 % 1021,1 hPa 0,0 l/m 0,0 km/h (0 Bft) N 0,00 h 0,000 mm 0,0 UV-I 25 W/m 7,5 C 7,7 C 0,0 km/h (0 Bft) 0,00 %
09.09.2015 08:00 9,4 C 95 % 1020,6 hPa 0,0 l/m 0,0 km/h (0 Bft) N 0,00 h 0,000 mm 1,0 UV-I 137 W/m 8,7 C 9,4 C 0,0 km/h (0 Bft) 0,00 %
09.09.2015 09:00 12,9 C 66 % 1021,2 hPa 0,0 l/m 0,0 km/h (0 Bft) N 0,00 h 0,000 mm 1,0 UV-I 166 W/m 6,7 C 12,9 C 0,3 km/h (0 Bft) 0,00 %
09.09.2015 10:00 12,9 C 68 % 1021,6 hPa 0,0 l/m 0,1 km/h (0 Bft) N 0,25 h 0,000 mm 1,4 UV-I 289 W/m 7,2 C 12,9 C 1,3 km/h (1 Bft) 0,00 %
09.09.2015 11:00 15,6 C 56 % 1021,5 hPa 0,0 l/m 0,5 km/h (0 Bft) O 0,25 h 0,000 mm 1,5 UV-I 341 W/m 6,9 C 15,6 C 2,0 km/h (1 Bft) 0,00 %
09.09.2015 12:00 16,5 C 51 % 1021,6 hPa 0,0 l/m 2,3 km/h (1 Bft) NO 0,67 h 0,000 mm 2,2 UV-I 521 W/m 6,4 C 16,3 C 4,0 km/h (1 Bft) 0,00 %
09.09.2015 13:00 15,8 C 58 % 1021,7 hPa 0,0 l/m 4,3 km/h (1 Bft) N-NO 0,17 h 0,000 mm 1,4 UV-I 290 W/m 7,4 C 15,6 C 7,6 km/h (2 Bft) 0,00 %
09.09.2015 14:00 14,5 C 62 % 1021,8 hPa 0,0 l/m 6,1 km/h (2 Bft) O-SO 0,08 h 0,000 mm 1,2 UV-I 276 W/m 7,2 C 13,9 C 10,2 km/h (2 Bft) 0,00 %
09.09.2015 15:00 14,0 C 61 % 1021,8 hPa 0,0 l/m 6,1 km/h (2 Bft) O-SO 0,17 h 0,000 mm 1,1 UV-I 269 W/m 6,7 C 13,4 C 9,6 km/h (2 Bft) 0,00 %
09.09.2015 16:00 14,0 C 60 % 1021,8 hPa 0,0 l/m 5,6 km/h (1 Bft) O-SO 0,25 h 0,000 mm 1,0 UV-I 264 W/m 6,2 C 13,4 C 8,9 km/h (2 Bft) 0,00 %
09.09.2015 17:00 13,6 C 61 % 1021,9 hPa 0,0 l/m 3,1 km/h (1 Bft) O 0,08 h 0,000 mm 1,0 UV-I 133 W/m 6,1 C 13,6 C 5,6 km/h (1 Bft) 0,00 %
09.09.2015 18:00 12,5 C 68 % 1021,9 hPa 0,0 l/m 1,0 km/h (0 Bft) O-SO 0,08 h 0,000 mm 0,0 UV-I 51 W/m 6,8 C 12,5 C 3,0 km/h (1 Bft) 0,00 %
09.09.2015 19:00 11,6 C 77 % 1022,1 hPa 0,0 l/m 1,6 km/h (1 Bft) O-SO 0,25 h 0,000 mm 0,0 UV-I 13 W/m 7,7 C 11,6 C 4,0 km/h (1 Bft) 0,00 %
09.09.2015 20:00 10,3 C 80 % 1022,5 hPa 0,0 l/m 1,6 km/h (1 Bft) O-SO 0,00 h 0,000 mm 0,0 UV-I 0 W/m 7,0 C 10,3 C 3,3 km/h (1 Bft) 0,00 %
09.09.2015 21:00 9,6 C 85 % 1022,6 hPa 0,0 l/m 0,8 km/h (0 Bft) O-SO 0,00 h 0,000 mm 0,0 UV-I 0 W/m 7,1 C 9,6 C 2,7 km/h (1 Bft) 0,00 %
09.09.2015 22:00 8,3 C 92 % 1022,5 hPa 0,0 l/m 0,0 km/h (0 Bft) N 0,00 h 0,000 mm 0,0 UV-I 0 W/m 7,0 C 8,3 C 0,0 km/h (0 Bft) 0,00 %
09.09.2015 23:00 7,1 C 96 % 1022,6 hPa 0,0 l/m 0,0 km/h (0 Bft) N 0,00 h 0,000 mm 0,0 UV-I 0 W/m 6,4 C 7,1 C 0,0 km/h (0 Bft) 0,00 %
10.09.2015 00:00 6,3 C 97 % 1022,6 hPa 0,0 l/m 0,0 km/h (0 Bft) N 0,00 h 0,000 mm 0,0 UV-I 0 W/m 5,9 C 6,3 C 0,0 km/h (0 Bft) 0,00 %
10.09.2015 01:00 5,7 C 98 % 1022,2 hPa 0,0 l/m 0,0 km/h (0 Bft) N 0,00 h 0,000 mm 0,0 UV-I 0 W/m 5,4 C 5,7 C 0,0 km/h (0 Bft) 0,00 %
10.09.2015 02:00 5,6 C 98 % 1021,9 hPa 0,0 l/m 0,1 km/h (0 Bft) N 0,00 h 0,000 mm 0,0 UV-I 0 W/m 5,3 C 5,6 C 0,3 km/h (0 Bft) 0,00 %
10.09.2015 03:00 5,2 C 98 % 1021,8 hPa 0,0 l/m 0,0 km/h (0 Bft) N 0,00 h 0,000 mm 0,0 UV-I 0 W/m 4,9 C 5,2 C 0,0 km/h (0 Bft) 0,00 %
10.09.2015 04:00 5,5 C 98 % 1021,7 hPa 0,0 l/m 0,0 km/h (0 Bft) N 0,00 h 0,000 mm 0,0 UV-I 0 W/m 5,2 C 5,5 C 0,3 km/h (0 Bft) 0,00 %
10.09.2015 05:00 5,6 C 98 % 1021,3 hPa 0,0 l/m 0,0 km/h (0 Bft) N 0,00 h 0,000 mm 0,0 UV-I 0 W/m 5,2 C 5,6 C 0,0 km/h (0 Bft) 0,00 %
10.09.2015 06:00 6,4 C 97 % 1021,4 hPa 0,0 l/m 0,0 km/h (0 Bft) N 0,00 h 0,000 mm 0,0 UV-I 3 W/m 6,0 C 6,4 C 0,0 km/h (0 Bft) 0,00 %
10.09.2015 07:00 7,1 C 98 % 1021,6 hPa 0,0 l/m 0,1 km/h (0 Bft) N 0,00 h 0,000 mm 0,0 UV-I 22 W/m 6,8 C 7,1 C 1,0 km/h (0 Bft) 0,00 %
10.09.2015 08:00 8,1 C 94 % 1021,2 hPa 0,0 l/m 0,3 km/h (0 Bft) O-NO 0,00 h 0,000 mm 1,0 UV-I 77 W/m 7,2 C 8,1 C 1,3 km/h (1 Bft) 0,00 %
10.09.2015 09:00 9,7 C 88 % 1020,4 hPa 0,0 l/m 3,7 km/h (1 Bft) O 0,08 h 0,000 mm 1,0 UV-I 188 W/m 7,8 C 9,6 C 7,0 km/h (2 Bft) 0,00 %
10.09.2015 10:00 11,6 C 78 % 1020,3 hPa 0,0 l/m 4,3 km/h (1 Bft) O 0,33 h 0,000 mm 1,6 UV-I 313 W/m 7,9 C 11,0 C 6,5 km/h (2 Bft) 0,00 %
10.09.2015 11:00 13,9 C 69 % 1020,4 hPa 0,0 l/m 7,7 km/h (2 Bft) O-NO 0,25 h 0,000 mm 2,0 UV-I 362 W/m 8,3 C 12,7 C 10,9 km/h (2 Bft) 0,00 %
10.09.2015 12:00 15,4 C 62 % 1019,9 hPa 0,0 l/m 9,9 km/h (2 Bft) O-SO 1,00 h 0,000 mm 2,9 UV-I 677 W/m 8,2 C 13,6 C 15,2 km/h (3 Bft) 0,00 %
10.09.2015 13:00 16,6 C 57 % 1019,5 hPa 0,0 l/m 5,4 km/h (1 Bft) O 0,83 h 0,000 mm 2,8 UV-I 618 W/m 7,9 C 16,3 C 8,9 km/h (2 Bft) 0,00 %
10.09.2015 14:00 17,2 C 53 % 1019,0 hPa 0,0 l/m 8,3 km/h (2 Bft) O-SO 0,67 h 0,000 mm 1,7 UV-I 562 W/m 7,6 C 16,0 C 12,9 km/h (3 Bft) 0,00 %
10.09.2015 15:00 16,7 C 50 % 1018,5 hPa 0,0 l/m 8,6 km/h (2 Bft) S 0,08 h 0,000 mm 1,0 UV-I 195 W/m 6,2 C 15,6 C 12,9 km/h (3 Bft) 0,00 %
10.09.2015 16:00 16,3 C 53 % 1018,3 hPa 0,0 l/m 9,4 km/h (2 Bft) O 0,08 h 0,000 mm 1,0 UV-I 187 W/m 6,6 C 14,7 C 14,2 km/h (3 Bft) 0,00 %
10.09.2015 17:00 16,1 C 54 % 1018,0 hPa 0,0 l/m 6,8 km/h (2 Bft) O 0,58 h 0,000 mm 1,0 UV-I 355 W/m 6,7 C 15,1 C 10,9 km/h (2 Bft) 0,00 %
10.09.2015 18:00 15,2 C 58 % 1017,7 hPa 0,0 l/m 5,1 km/h (1 Bft) O-NO 0,67 h 0,000 mm 0,0 UV-I 174 W/m 7,1 C 14,9 C 9,6 km/h (2 Bft) 0,00 %
10.09.2015 19:00 14,2 C 62 % 1017,9 hPa 0,0 l/m 3,9 km/h (1 Bft) NO 0,33 h 0,000 mm 0,0 UV-I 23 W/m 7,0 C 14,0 C 6,3 km/h (2 Bft) 0,00 %
10.09.2015 20:00 12,3 C 70 % 1018,4 hPa 0,0 l/m 1,0 km/h (0 Bft) O 0,00 h 0,000 mm 0,0 UV-I 0 W/m 7,0 C 12,3 C 3,0 km/h (1 Bft) 0,00 %
10.09.2015 21:00 11,4 C 73 % 1018,5 hPa 0,0 l/m 0,5 km/h (0 Bft) O-NO 0,00 h 0,000 mm 0,0 UV-I 0 W/m 6,7 C 11,4 C 2,0 km/h (1 Bft) 0,00 %
10.09.2015 22:00 10,5 C 78 % 1018,5 hPa 0,0 l/m 0,0 km/h (0 Bft) N 0,00 h 0,000 mm 0,0 UV-I 0 W/m 6,8 C 10,5 C 0,3 km/h (0 Bft) 0,00 %
10.09.2015 23:00 9,5 C 84 % 1018,6 hPa 0,0 l/m 0,4 km/h (0 Bft) O-SO 0,00 h 0,000 mm 0,0 UV-I 0 W/m 6,9 C 9,5 C 1,0 km/h (0 Bft) 0,00 %
11.09.2015 00:00 8,6 C 88 % 1018,5 hPa 0,0 l/m 0,3 km/h (0 Bft) O 0,00 h 0,000 mm 0,0 UV-I 0 W/m 6,7 C 8,6 C 0,7 km/h (0 Bft) 0,00 %
11.09.2015 01:00 7,8 C 92 % 1018,2 hPa 0,0 l/m 0,0 km/h (0 Bft) N 0,00 h 0,000 mm 0,0 UV-I 0 W/m 6,5 C 7,8 C 0,0 km/h (0 Bft) 0,00 %
11.09.2015 02:00 5,8 C 95 % 1018,0 hPa 0,0 l/m 0,0 km/h (0 Bft) N 0,00 h 0,000 mm 0,0 UV-I 0 W/m 5,1 C 5,8 C 0,0 km/h (0 Bft) 0,00 %
11.09.2015 03:00 5,0 C 98 % 1017,9 hPa 0,0 l/m 0,0 km/h (0 Bft) N 0,00 h 0,000 mm 0,0 UV-I 0 W/m 4,7 C 5,0 C 0,0 km/h (0 Bft) 0,00 %
11.09.2015 04:00 5,0 C 99 % 1017,6 hPa 0,0 l/m 0,0 km/h (0 Bft) N 0,00 h 0,000 mm 0,0 UV-I 0 W/m 4,8 C 5,0 C 0,0 km/h (0 Bft) 0,00 %
11.09.2015 05:00 4,8 C 99 % 1017,8 hPa 0,0 l/m 0,0 km/h (0 Bft) N 0,00 h 0,000 mm 0,0 UV-I 0 W/m 4,6 C 4,8 C 0,0 km/h (0 Bft) 0,00 %
11.09.2015 06:00 4,7 C 99 % 1018,1 hPa 0,0 l/m 0,0 km/h (0 Bft) N 0,25 h 0,000 mm 0,0 UV-I 17 W/m 4,6 C 4,7 C 0,0 km/h (0 Bft) 0,00 %
11.09.2015 07:00 7,0 C 98 % 1018,3 hPa 0,0 l/m 1,8 km/h (1 Bft) O 0,50 h 0,000 mm 0,0 UV-I 82 W/m 6,8 C 7,0 C 3,0 km/h (1 Bft) 0,00 %
11.09.2015 08:00 9,5 C 96 % 1018,6 hPa 0,0 l/m 3,5 km/h (1 Bft) SO 0,42 h 0,000 mm 1,0 UV-I 154 W/m 8,8 C 8,9 C 7,9 km/h (2 Bft) 0,00 %
11.09.2015 09:00 10,8 C 85 % 1018,7 hPa 0,0 l/m 1,4 km/h (1 Bft) O-SO 0,00 h 0,000 mm 1,0 UV-I 185 W/m 8,4 C 10,8 C 4,0 km/h (1 Bft) 0,00 %
11.09.2015 10:00 12,8 C 77 % 1018,8 hPa 0,0 l/m 1,6 km/h (1 Bft) O 0,00 h 0,000 mm 1,0 UV-I 277 W/m 9,0 C 12,8 C 3,3 km/h (1 Bft) 0,00 %
11.09.2015 11:00 15,1 C 67 % 1018,7 hPa 0,0 l/m 3,4 km/h (1 Bft) O-SO 0,42 h 0,000 mm 1,8 UV-I 433 W/m 9,0 C 15,0 C 6,0 km/h (2 Bft) 0,00 %
11.09.2015 12:00 18,0 C 54 % 1018,8 hPa 0,0 l/m 1,5 km/h (1 Bft) O-SO 0,92 h 0,000 mm 2,5 UV-I 601 W/m 8,7 C 18,0 C 3,0 km/h (1 Bft) 0,00 %
11.09.2015 13:00 19,4 C 46 % 1018,6 hPa 0,0 l/m 1,0 km/h (0 Bft) NO 1,00 h 0,000 mm 3,0 UV-I 712 W/m 7,4 C 19,4 C 2,7 km/h (1 Bft) 0,00 %
11.09.2015 14:00 20,1 C 43 % 1018,5 hPa 0,0 l/m 1,2 km/h (1 Bft) O 1,00 h 0,000 mm 1,5 UV-I 737 W/m 7,1 C 20,1 C 2,7 km/h (1 Bft) 0,00 %
11.09.2015 15:00 19,8 C 43 % 1018,1 hPa 0,0 l/m 0,8 km/h (0 Bft) O-NO 1,00 h 0,000 mm 1,0 UV-I 719 W/m 6,8 C 19,8 C 2,3 km/h (1 Bft) 0,00 %
11.09.2015 16:00 20,2 C 43 % 1017,8 hPa 0,0 l/m 1,3 km/h (1 Bft) NO 1,00 h 0,000 mm 1,0 UV-I 685 W/m 7,2 C 20,2 C 3,3 km/h (1 Bft) 0,00 %
11.09.2015 17:00 20,9 C 41 % 1017,7 hPa 0,0 l/m 2,1 km/h (1 Bft) O 1,00 h 0,000 mm 1,0 UV-I 541 W/m 7,2 C 20,9 C 3,6 km/h (1 Bft) 0,00 %
11.09.2015 18:00 19,1 C 54 % 1017,5 hPa 0,0 l/m 2,6 km/h (1 Bft) O 0,67 h 0,000 mm 0,0 UV-I 169 W/m 9,5 C 19,1 C 5,0 km/h (1 Bft) 0,00 %
11.09.2015 19:00 16,4 C 69 % 1017,8 hPa 0,0 l/m 1,7 km/h (1 Bft) O-SO 0,00 h 0,000 mm 0,0 UV-I 6 W/m 10,8 C 16,4 C 4,3 km/h (1 Bft) 0,00 %
11.09.2015 20:00 15,0 C 79 % 1018,8 hPa 0,0 l/m 0,5 km/h (0 Bft) O-NO 0,00 h 0,000 mm 0,0 UV-I 0 W/m 11,4 C 15,0 C 1,3 km/h (1 Bft) 0,00 %
11.09.2015 21:00 14,6 C 82 % 1019,6 hPa 0,0 l/m 1,0 km/h (0 Bft) O-SO 0,00 h 0,000 mm 0,0 UV-I 0 W/m 11,5 C 14,6 C 2,3 km/h (1 Bft) 0,00 %
11.09.2015 22:00 13,6 C 85 % 1019,1 hPa 0,0 l/m 2,5 km/h (1 Bft) O-SO 0,00 h 0,000 mm 0,0 UV-I 0 W/m 11,2 C 13,6 C 5,0 km/h (1 Bft) 0,00 %
11.09.2015 23:00 12,4 C 90 % 1019,0 hPa 0,0 l/m 0,2 km/h (0 Bft) O-NO 0,00 h 0,000 mm 0,0 UV-I 0 W/m 10,8 C 12,4 C 1,0 km/h (0 Bft) 0,00 %
12.09.2015 00:00 11,0 C 93 % 1019,0 hPa 0,0 l/m 0,0 km/h (0 Bft) N 0,00 h 0,000 mm 0,0 UV-I 0 W/m 9,9 C 11,0 C 0,0 km/h (0 Bft) 0,00 %
12.09.2015 01:00 9,9 C 97 % 1019,0 hPa 0,0 l/m 0,1 km/h (0 Bft) N 0,00 h 0,000 mm 0,0 UV-I 0 W/m 9,5 C 9,9 C 0,3 km/h (0 Bft) 0,00 %
12.09.2015 02:00 10,3 C 99 % 1018,8 hPa 0,0 l/m 0,0 km/h (0 Bft) N 0,00 h 0,000 mm 0,0 UV-I 0 W/m 10,1 C 10,3 C 0,0 km/h (0 Bft) 0,00 %
12.09.2015 03:00 9,2 C 99 % 1018,7 hPa 0,0 l/m 0,0 km/h (0 Bft) N 0,00 h 0,000 mm 0,0 UV-I 0 W/m 9,1 C 9,2 C 0,0 km/h (0 Bft) 0,00 %
12.09.2015 04:00 8,5 C 99 % 1019,0 hPa 0,0 l/m 0,0 km/h (0 Bft) N 0,00 h 0,000 mm 0,0 UV-I 0 W/m 8,4 C 8,5 C 0,0 km/h (0 Bft) 0,00 %
12.09.2015 05:00 7,7 C 99 % 1019,0 hPa 0,0 l/m 0,0 km/h (0 Bft) N 0,00 h 0,000 mm 0,0 UV-I 0 W/m 7,5 C 7,7 C 0,0 km/h (0 Bft) 0,00 %
12.09.2015 06:00 8,5 C 99 % 1019,5 hPa 0,0 l/m 0,0 km/h (0 Bft) N 0,00 h 0,000 mm 0,0 UV-I 5 W/m 8,4 C 8,5 C 0,3 km/h (0 Bft) 0,00 %
12.09.2015 07:00 9,8 C 99 % 1020,0 hPa 0,0 l/m 0,7 km/h (0 Bft) O 0,00 h 0,000 mm 0,0 UV-I 31 W/m 9,6 C 9,8 C 2,3 km/h (1 Bft) 0,00 %
12.09.2015 08:00 10,2 C 98 % 1020,4 hPa 0,0 l/m 0,6 km/h (0 Bft) SO 0,00 h 0,000 mm 1,0 UV-I 90 W/m 9,9 C 10,2 C 1,3 km/h (1 Bft) 0,00 %
12.09.2015 09:00 11,1 C 97 % 1020,6 hPa 0,0 l/m 0,9 km/h (0 Bft) O 0,00 h 0,000 mm 1,0 UV-I 155 W/m 10,7 C 11,1 C 2,3 km/h (1 Bft) 0,00 %
12.09.2015 10:00 12,4 C 90 % 1020,7 hPa 0,0 l/m 0,5 km/h (0 Bft) O-NO 0,00 h 0,000 mm 1,0 UV-I 226 W/m 10,7 C 12,4 C 1,7 km/h (1 Bft) 0,00 %
12.09.2015 11:00 15,8 C 71 % 1020,5 hPa 0,0 l/m 0,7 km/h (0 Bft) NW 0,75 h 0,000 mm 2,0 UV-I 460 W/m 10,5 C 15,8 C 2,7 km/h (1 Bft) 0,00 %
12.09.2015 12:00 18,6 C 60 % 1020,1 hPa 0,0 l/m 0,2 km/h (0 Bft) SO 1,02 h 0,000 mm 2,9 UV-I 649 W/m 10,6 C 18,6 C 1,0 km/h (0 Bft) 0,00 %
12.09.2015 13:00 20,6 C 52 % 1019,7 hPa 0,0 l/m 0,6 km/h (0 Bft) NO 1,00 h 0,000 mm 2,8 UV-I 723 W/m 10,3 C 20,6 C 1,3 km/h (1 Bft) 0,00 %
12.09.2015 14:00 21,5 C 48 % 1018,9 hPa 0,0 l/m 1,0 km/h (0 Bft) O-SO 1,00 h 0,000 mm 1,5 UV-I 738 W/m 10,0 C 21,5 C 2,3 km/h (1 Bft) 0,00 %
12.09.2015 15:00 22,0 C 46 % 1018,1 hPa 0,0 l/m 2,7 km/h (1 Bft) O 1,00 h 0,000 mm 1,0 UV-I 684 W/m 9,6 C 22,0 C 5,0 km/h (1 Bft) 0,00 %
12.09.2015 16:00 22,5 C 44 % 1017,5 hPa 0,0 l/m 2,6 km/h (1 Bft) O-NO 1,00 h 0,000 mm 1,0 UV-I 648 W/m 9,4 C 22,4 C 4,3 km/h (1 Bft) 0,00 %
12.09.2015 17:00 23,1 C 43 % 1017,1 hPa 0,0 l/m 3,8 km/h (1 Bft) O 1,00 h 0,000 mm 1,0 UV-I 527 W/m 9,7 C 22,9 C 6,3 km/h (2 Bft) 0,00 %
12.09.2015 18:00 21,4 C 49 % 1016,8 hPa 0,0 l/m 3,7 km/h (1 Bft) O-NO 1,00 h 0,000 mm 0,0 UV-I 249 W/m 10,2 C 21,2 C 6,0 km/h (2 Bft) 0,00 %
12.09.2015 19:00 19,0 C 59 % 1016,5 hPa 0,0 l/m 3,8 km/h (1 Bft) O-SO 0,25 h 0,000 mm 0,0 UV-I 18 W/m 10,7 C 18,9 C 6,3 km/h (2 Bft) 0,00 %
12.09.2015 20:00 17,3 C 71 % 1016,7 hPa 0,0 l/m 3,2 km/h (1 Bft) O 0,00 h 0,000 mm 0,0 UV-I 0 W/m 11,9 C 17,3 C 6,0 km/h (2 Bft) 0,00 %
12.09.2015 21:00 16,7 C 76 % 1016,7 hPa 0,0 l/m 3,4 km/h (1 Bft) O-NO 0,00 h 0,000 mm 0,0 UV-I 0 W/m 12,4 C 16,7 C 6,9 km/h (2 Bft) 0,00 %
12.09.2015 22:00 16,5 C 75 % 1016,2 hPa 0,0 l/m 4,5 km/h (1 Bft) O-SO 0,00 h 0,000 mm 0,0 UV-I 0 W/m 12,0 C 16,2 C 7,0 km/h (2 Bft) 0,00 %
12.09.2015 23:00 14,8 C 82 % 1016,2 hPa 0,0 l/m 0,2 km/h (0 Bft) NO 0,00 h 0,000 mm 0,0 UV-I 0 W/m 11,8 C 14,8 C 1,3 km/h (1 Bft) 0,00 %
13.09.2015 00:00 13,5 C 87 % 1016,1 hPa 0,0 l/m 0,0 km/h (0 Bft) N 0,00 h 0,000 mm 0,0 UV-I 0 W/m 11,4 C 13,5 C 0,0 km/h (0 Bft) 0,00 %
13.09.2015 01:00 12,4 C 91 % 1015,9 hPa 0,0 l/m 0,0 km/h (0 Bft) N 0,00 h 0,000 mm 0,0 UV-I 0 W/m 10,9 C 12,4 C 0,0 km/h (0 Bft) 0,00 %
13.09.2015 02:00 10,9 C 95 % 1015,9 hPa 0,0 l/m 0,0 km/h (0 Bft) N 0,00 h 0,000 mm 0,0 UV-I 0 W/m 10,0 C 10,9 C 0,0 km/h (0 Bft) 0,00 %
13.09.2015 03:00 9,9 C 97 % 1015,9 hPa 0,0 l/m 0,0 km/h (0 Bft) N 0,00 h 0,000 mm 0,0 UV-I 0 W/m 9,5 C 9,9 C 0,0 km/h (0 Bft) 0,00 %
13.09.2015 04:00 9,1 C 99 % 1015,9 hPa 0,0 l/m 0,0 km/h (0 Bft) N 0,00 h 0,000 mm 0,0 UV-I 0 W/m 9,0 C 9,1 C 0,0 km/h (0 Bft) 0,00 %
13.09.2015 05:00 8,9 C 99 % 1015,8 hPa 0,0 l/m 0,0 km/h (0 Bft) N 0,00 h 0,000 mm 0,0 UV-I 0 W/m 8,7 C 8,9 C 0,0 km/h (0 Bft) 0,00 %
13.09.2015 06:00 8,1 C 99 % 1015,8 hPa 0,0 l/m 0,0 km/h (0 Bft) N 0,25 h 0,000 mm 0,0 UV-I 18 W/m 8,0 C 8,1 C 0,0 km/h (0 Bft) 0,00 %
13.09.2015 07:00 9,7 C 98 % 1016,1 hPa 0,0 l/m 0,0 km/h (0 Bft) N 0,17 h 0,000 mm 0,0 UV-I 73 W/m 9,4 C 9,7 C 0,0 km/h (0 Bft) 0,00 %
13.09.2015 08:00 13,7 C 88 % 1015,8 hPa 0,0 l/m 1,4 km/h (1 Bft) O-NO 0,00 h 0,000 mm 1,0 UV-I 121 W/m 11,6 C 13,6 C 3,3 km/h (1 Bft) 0,00 %
13.09.2015 09:00 15,7 C 75 % 1015,7 hPa 0,0 l/m 1,6 km/h (1 Bft) O-NO 0,00 h 0,000 mm 1,0 UV-I 181 W/m 11,3 C 15,7 C 3,3 km/h (1 Bft) 0,00 %
13.09.2015 10:00 18,7 C 63 % 1015,0 hPa 0,0 l/m 2,5 km/h (1 Bft) O 0,50 h 0,000 mm 1,9 UV-I 331 W/m 11,4 C 18,7 C 5,0 km/h (1 Bft) 0,00 %
13.09.2015 11:00 20,2 C 59 % 1013,8 hPa 0,0 l/m 3,6 km/h (1 Bft) O-SO 1,00 h 0,000 mm 2,0 UV-I 493 W/m 11,8 C 20,2 C 5,9 km/h (2 Bft) 0,00 %
13.09.2015 12:00 21,1 C 52 % 1013,0 hPa 0,0 l/m 4,5 km/h (1 Bft) SO 1,00 h 0,000 mm 2,7 UV-I 641 W/m 11,0 C 21,0 C 7,3 km/h (2 Bft) 0,00 %
13.09.2015 13:00 22,1 C 48 % 1012,2 hPa 0,0 l/m 5,4 km/h (1 Bft) NO 1,00 h 0,000 mm 2,4 UV-I 653 W/m 10,5 C 21,8 C 8,6 km/h (2 Bft) 0,00 %
13.09.2015 14:00 23,0 C 47 % 1011,6 hPa 0,0 l/m 5,7 km/h (1 Bft) SO 0,92 h 0,000 mm 1,5 UV-I 651 W/m 11,1 C 22,5 C 8,9 km/h (2 Bft) 0,00 %
13.09.2015 15:00 22,4 C 52 % 1011,1 hPa 0,0 l/m 3,8 km/h (1 Bft) SO 0,75 h 0,000 mm 1,0 UV-I 489 W/m 12,1 C 22,2 C 6,6 km/h (2 Bft) 0,00 %
13.09.2015 16:00 22,3 C 55 % 1010,4 hPa 0,0 l/m 2,0 km/h (1 Bft) O-SO 0,00 h 0,000 mm 1,0 UV-I 136 W/m 12,8 C 22,3 C 3,6 km/h (1 Bft) 0,00 %
13.09.2015 17:00 22,7 C 55 % 1009,7 hPa 0,0 l/m 1,3 km/h (1 Bft) O 0,67 h 0,000 mm 1,0 UV-I 242 W/m 13,1 C 22,7 C 2,6 km/h (1 Bft) 0,00 %
13.09.2015 18:00 21,2 C 60 % 1009,2 hPa 0,0 l/m 0,2 km/h (0 Bft) N 0,25 h 0,000 mm 0,0 UV-I 61 W/m 13,1 C 21,2 C 1,3 km/h (1 Bft) 0,00 %
13.09.2015 19:00 19,5 C 66 % 1008,8 hPa 0,0 l/m 1,6 km/h (1 Bft) O 0,00 h 0,000 mm 0,0 UV-I 4 W/m 13,0 C 19,5 C 3,3 km/h (1 Bft) 0,00 %
13.09.2015 20:00 18,9 C 68 % 1008,9 hPa 0,0 l/m 1,6 km/h (1 Bft) O-SO 0,00 h 0,000 mm 0,0 UV-I 0 W/m 13,0 C 18,9 C 4,3 km/h (1 Bft) 0,00 %
13.09.2015 21:00 16,5 C 78 % 1008,8 hPa 0,0 l/m 0,3 km/h (0 Bft) NO 0,00 h 0,000 mm 0,0 UV-I 0 W/m 12,6 C 16,5 C 1,0 km/h (0 Bft) 0,00 %
13.09.2015 22:00 15,8 C 78 % 1008,6 hPa 0,0 l/m 0,6 km/h (0 Bft) O-SO 0,00 h 0,000 mm 0,0 UV-I 0 W/m 11,9 C 15,8 C 1,8 km/h (1 Bft) 0,00 %
13.09.2015 23:00 14,9 C 80 % 1008,4 hPa 0,0 l/m 0,0 km/h (0 Bft) N 0,00 h 0,000 mm 0,0 UV-I 0 W/m 11,4 C 14,9 C 0,0 km/h (0 Bft) 0,00 %
Min-Datum _ 11.09.15 08.09.15 13.09.15 - 07.09.15 - - - - - 08.09.15 11.09.15 07.09.15 07.09.15
_ Min-Zeit 04:51 14:32 23:45 - 00:10 - - - - - 18:42 04:51 00:10 00:00
Minimum _ 4,7 C 36 % 1008,1 hPa - 0,0 km/h (0 Bft) - - - - - 2,9 C 4,7 C 0,0 km/h (0 Bft) 0,00 %
Max-Datum _ 12.09.15 08.09.15 07.09.15 08.09.15 10.09.15 - 12.09.15 07.09.15 08.09.15 08.09.15 13.09.15 12.09.15 10.09.15 07.09.15
_ Max-Zeit 17:28 01:16 23:51 00:06 16:15 - 12:43 00:00 11:37 13:22 17:29 17:28 11:35 00:00
Maximum _ 23,4 C 99 % 1025,6 hPa 2,4 l/m 18,0 km/h
O (3 Bft)
- 0,10 h 0,000 mm 3,0 UV-I 844 W/m 13,5 C 23,4 C 24,1 km/h
O-NO (4 Bft)
0,00 %
Durchschnitt _ 12,8 C 75 % 1019,8 hPa #4,2 l/m 1,7 km/h (1 Bft) O-SO #40:16 h #0,000 mm 1,4 UV-I 301 W/m 8,0 C 12,7 C 3,2 km/h (1 Bft) 0,00 %